Time;durP1;ratioP1;P1;durP2;ratioP2;P2;SDS_P1;SDS_P2;PMS_P1;PMS_P2;Temp;Humidity;BMP_temperature;BMP_pressure;BME280_temperature;BME280_humidity;BME280_pressure;Samples;Min_cycle;Max_cycle;Signal;HPM_P1;HPM_P2
2023/02/02 00:01:29;;;;;;;0.73;0.40;;;;;;;2.28;83.35;100306.84;5051635;28;20067;-65
2023/02/02 00:03:55;;;;;;;0.93;0.20;;;;;;;2.24;83.51;100300.19;5051343;28;20480;-65
2023/02/02 00:06:23;;;;;;;1.77;0.40;;;;;;;2.18;84.38;100306.09;5052392;28;20052;-65
2023/02/02 00:08:48;;;;;;;0.40;0.20;;;;;;;2.03;84.44;100303.22;5052721;28;20453;-65
2023/02/02 00:11:15;;;;;;;1.17;0.25;;;;;;;2.35;83.52;100313.19;5052397;28;20029;-65
2023/02/02 00:13:40;;;;;;;1.08;0.28;;;;;;;2.16;84.65;100312.59;5052514;28;20033;-65
2023/02/02 00:16:24;;;;;;;0.75;0.20;;;;;;;2.50;83.15;100325.88;5051868;28;20100;-65
2023/02/02 00:18:50;;;;;;;0.82;0.25;;;;;;;2.43;83.53;100346.09;5052226;28;20468;-65
2023/02/02 00:21:15;;;;;;;0.70;0.28;;;;;;;2.41;83.13;100340.91;5055949;28;20128;-65
2023/02/02 00:23:41;;;;;;;1.60;0.40;;;;;;;2.63;81.87;100336.06;5056378;28;20032;-65
2023/02/02 00:26:06;;;;;;;1.17;0.20;;;;;;;2.55;81.19;100340.34;5039716;28;20033;-65
2023/02/02 00:28:32;;;;;;;0.35;0.20;;;;;;;2.61;81.41;100351.31;5059026;28;20664;-65
2023/02/02 00:30:57;;;;;;;0.45;0.15;;;;;;;2.54;82.07;100354.59;5057805;28;20025;-65
2023/02/02 00:33:23;;;;;;;0.57;0.20;;;;;;;2.42;82.11;100347.91;5054048;28;20542;-65
2023/02/02 00:35:51;;;;;;;1.95;0.10;;;;;;;2.56;80.45;100347.31;5055570;28;20033;-65
2023/02/02 00:38:16;;;;;;;0.93;0.20;;;;;;;2.68;80.08;100361.16;5054902;28;20116;-65
2023/02/02 00:40:42;;;;;;;0.30;0.10;;;;;;;2.79;80.68;100374.16;5055361;28;20468;-65
2023/02/02 00:43:07;;;;;;;0.77;0.20;;;;;;;2.51;80.83;100381.47;5054448;28;20575;-65
2023/02/02 00:45:32;;;;;;;0.70;0.20;;;;;;;2.65;80.58;100384.53;5053972;28;20036;-65
2023/02/02 00:47:58;;;;;;;1.00;0.20;;;;;;;2.45;81.37;100384.78;5055876;28;20446;-65
2023/02/02 00:50:23;;;;;;;0.30;0.10;;;;;;;2.65;80.39;100387.19;5055993;28;20474;-65
2023/02/02 00:52:50;;;;;;;0.47;0.15;;;;;;;2.67;79.73;100391.38;5055540;28;20108;-65
2023/02/02 00:55:16;;;;;;;0.70;0.30;;;;;;;2.57;81.27;100402.09;5037878;28;20040;-65
2023/02/02 00:57:43;;;;;;;0.32;0.10;;;;;;;2.44;81.63;100411.47;5056008;28;20357;-65
2023/02/02 01:00:13;;;;;;;0.45;0.10;;;;;;;2.43;81.82;100420.44;5054280;28;20557;-65
2023/02/02 01:02:39;;;;;;;0.77;0.20;;;;;;;2.38;82.05;100422.72;5055216;28;20037;-65
2023/02/02 01:05:05;;;;;;;0.57;0.13;;;;;;;2.51;81.85;100428.44;5055777;28;20029;-65
2023/02/02 01:07:31;;;;;;;0.90;0.20;;;;;;;2.49;81.69;100435.75;5054023;28;20033;-65
2023/02/02 01:09:56;;;;;;;0.40;0.10;;;;;;;2.50;80.94;100432.94;5055282;28;20024;-65
2023/02/02 01:12:22;;;;;;;0.10;0.05;;;;;;;2.43;81.09;100434.56;5052893;28;20028;-65
2023/02/02 01:14:47;;;;;;;0.50;0.13;;;;;;;2.48;81.24;100434.06;5053808;28;20025;-65
2023/02/02 01:17:14;;;;;;;1.10;0.20;;;;;;;2.56;80.42;100431.47;5054109;28;20522;-65
2023/02/02 01:19:40;;;;;;;0.82;0.17;;;;;;;2.80;79.79;100446.72;5037585;28;20029;-65
2023/02/02 01:22:06;;;;;;;0.95;0.20;;;;;;;2.65;79.37;100457.13;5053352;28;20139;-65
2023/02/02 01:24:31;;;;;;;1.45;0.30;;;;;;;2.57;80.07;100459.69;5054160;28;20036;-65
2023/02/02 01:26:56;;;;;;;0.57;0.10;;;;;;;2.79;78.82;100472.47;5037219;28;20406;-65
2023/02/02 01:29:22;;;;;;;0.38;0.10;;;;;;;2.52;78.68;100468.16;5055191;28;20403;-65
2023/02/02 01:31:48;;;;;;;0.30;0.10;;;;;;;2.46;79.08;100478.56;5053774;28;20029;-65
2023/02/02 01:34:14;;;;;;;0.10;0.10;;;;;;;2.38;79.18;100457.25;5054396;28;20025;-65
2023/02/02 01:36:39;;;;;;;0.63;0.10;;;;;;;2.61;78.58;100490.28;5054752;28;20107;-65
2023/02/02 01:39:05;;;;;;;0.82;0.10;;;;;;;2.55;79.43;100497.06;5054822;28;20025;-65
2023/02/02 01:41:30;;;;;;;1.75;0.20;;;;;;;2.63;79.07;100495.44;5054391;28;20028;-65
2023/02/02 01:44:01;;;;;;;0.85;0.20;;;;;;;2.69;79.17;100502.78;5054708;28;20031;-65
2023/02/02 01:46:29;;;;;;;0.38;0.10;;;;;;;2.47;80.00;100509.44;5054729;28;20394;-65
2023/02/02 01:49:07;;;;;;;1.23;0.20;;;;;;;2.21;80.82;100507.53;5053447;28;20025;-65
2023/02/02 01:51:41;;;;;;;0.95;0.17;;;;;;;2.10;81.91;100492.69;5054565;28;20029;-65
2023/02/02 01:54:12;;;;;;;0.20;0.10;;;;;;;2.00;81.86;100530.91;5052352;28;20025;-65
2023/02/02 01:56:45;;;;;;;0.47;0.10;;;;;;;2.09;81.99;100525.53;5053722;28;20032;-66
2023/02/02 01:59:13;;;;;;;1.02;0.20;;;;;;;2.32;81.00;100531.22;5056373;28;20104;-65
2023/02/02 02:01:40;;;;;;;1.58;0.30;;;;;;;2.27;81.03;100532.66;5056420;28;20454;-65
2023/02/02 02:04:06;;;;;;;1.17;0.20;;;;;;;2.48;80.27;100556.22;5055414;28;20025;-65
2023/02/02 02:06:32;;;;;;;0.55;0.20;;;;;;;2.52;80.06;100562.94;5055506;28;20033;-65
2023/02/02 02:09:02;;;;;;;1.58;0.20;;;;;;;2.23;81.13;100548.06;5054054;28;20025;-65
2023/02/02 02:11:28;;;;;;;2.38;0.20;;;;;;;2.46;80.53;100575.00;5052542;28;20067;-65
2023/02/02 02:16:54;;;;;;;1.63;0.20;;;;;;;2.37;80.71;100585.69;5053761;28;20036;-65
2023/02/02 02:26:35;;;;;;;0.68;0.10;;;;;;;2.02;81.52;100609.38;5053779;28;20117;-65
2023/02/02 02:29:18;;;;;;;0.50;0.20;;;;;;;1.97;81.38;100606.34;5053561;28;20021;-65
2023/02/02 02:32:08;;;;;;;0.28;0.10;;;;;;;1.97;82.19;100622.25;5052287;28;20032;-65
2023/02/02 02:34:43;;;;;;;3.00;0.20;;;;;;;1.92;82.45;100623.66;5053663;28;20134;-65
2023/02/02 02:37:16;;;;;;;0.08;0.03;;;;;;;1.53;83.29;100608.78;5054054;28;20492;-65
2023/02/02 02:39:49;;;;;;;0.75;0.15;;;;;;;1.78;83.64;100636.44;5052587;28;20049;-65
2023/02/02 02:42:21;;;;;;;0.70;0.20;;;;;;;1.66;83.23;100640.28;5054188;28;20032;-65
2023/02/02 02:44:49;;;;;;;1.65;0.30;;;;;;;1.71;82.88;100627.41;5053202;28;20083;-65
2023/02/02 02:47:17;;;;;;;1.05;0.20;;;;;;;1.72;83.29;100649.44;5053240;28;20124;-65
2023/02/02 02:49:44;;;;;;;2.17;0.20;;;;;;;1.58;83.70;100650.75;5052177;28;20033;-65
2023/02/02 02:52:10;;;;;;;2.35;0.50;;;;;;;1.53;83.84;100651.22;5051874;28;20037;-65
2023/02/02 02:54:40;;;;;;;0.75;0.20;;;;;;;1.33;84.26;100654.91;5053179;28;20102;-65
2023/02/02 02:57:43;;;;;;;0.30;0.20;;;;;;;1.28;84.96;100668.56;5053306;28;20060;-65
2023/02/02 03:00:08;;;;;;;1.08;0.30;;;;;;;1.32;84.89;100664.63;5053126;28;20391;-65
2023/02/02 03:02:41;;;;;;;1.48;0.30;;;;;;;1.34;84.07;100662.69;5051632;28;20029;-64
2023/02/02 03:05:29;;;;;;;0.43;0.10;;;;;;;1.40;84.74;100670.06;5051959;28;20098;-65
2023/02/02 03:08:04;;;;;;;0.88;0.30;;;;;;;1.24;84.74;100676.94;5053216;28;20048;-65
2023/02/02 03:10:31;;;;;;;0.43;0.20;;;;;;;1.33;84.60;100668.97;5052947;28;20032;-65
2023/02/02 03:12:57;;;;;;;0.52;0.20;;;;;;;1.37;85.11;100678.31;5052945;28;20024;-64
2023/02/02 03:15:22;;;;;;;0.15;0.10;;;;;;;1.45;84.60;100680.25;5053096;28;20040;-65
2023/02/02 03:17:50;;;;;;;1.25;0.10;;;;;;;1.28;85.29;100695.06;5052851;28;20154;-65
2023/02/02 03:20:16;;;;;;;1.83;0.22;;;;;;;1.49;84.57;100689.59;5034842;28;20137;-65
2023/02/02 03:22:41;;;;;;;1.10;0.28;;;;;;;1.43;84.42;100695.47;5051537;28;20361;-65
2023/02/02 03:25:10;;;;;;;0.80;0.20;;;;;;;1.81;82.45;100699.81;5053262;28;20072;-65
2023/02/02 03:27:37;;;;;;;1.25;0.10;;;;;;;1.41;83.97;100706.19;5052365;28;20025;-65
2023/02/02 03:30:03;;;;;;;0.30;0.20;;;;;;;1.31;84.24;100721.28;5052926;28;20155;-65
2023/02/02 03:32:29;;;;;;;1.48;0.32;;;;;;;1.29;84.37;100722.41;5052611;28;20089;-65
2023/02/02 03:34:54;;;;;;;0.95;0.20;;;;;;;1.13;84.97;100729.13;5052756;28;20525;-65
2023/02/02 03:37:20;;;;;;;1.15;0.30;;;;;;;1.17;85.09;100740.28;5051747;28;20029;-65
2023/02/02 03:39:45;;;;;;;1.77;0.22;;;;;;;1.30;85.07;100740.84;5053706;28;20032;-65
2023/02/02 03:42:11;;;;;;;1.13;0.20;;;;;;;1.50;83.48;100754.06;5036869;28;20039;-65
2023/02/02 03:44:36;;;;;;;0.82;0.30;;;;;;;1.44;83.69;100747.50;5055292;28;20025;-65
2023/02/02 03:47:02;;;;;;;0.80;0.20;;;;;;;1.47;82.96;100755.19;5037012;28;20136;-65
2023/02/02 03:49:27;;;;;;;1.10;0.20;;;;;;;1.37;83.50;100755.19;5054146;28;20033;-65
2023/02/02 03:51:52;;;;;;;0.50;0.30;;;;;;;1.19;84.24;100754.22;5052811;28;20039;-65
2023/02/02 03:54:18;;;;;;;2.47;0.38;;;;;;;1.29;84.01;100763.03;5051010;28;20052;-65
2023/02/02 03:56:43;;;;;;;2.92;0.20;;;;;;;1.26;84.11;100765.97;5053599;28;20036;-65
2023/02/02 03:59:09;;;;;;;2.58;0.30;;;;;;;1.29;83.59;100764.81;5055188;28;20124;-65
2023/02/02 04:01:34;;;;;;;1.95;0.35;;;;;;;1.38;83.60;100775.41;5054909;28;20029;-65
2023/02/02 04:04:00;;;;;;;1.65;0.38;;;;;;;1.34;83.50;100781.16;5037571;28;20082;-64
2023/02/02 04:06:25;;;;;;;1.17;0.40;;;;;;;1.27;83.14;100788.00;5054630;28;20545;-65
2023/02/02 04:08:51;;;;;;;0.88;0.40;;;;;;;1.36;83.19;100789.81;5037322;28;20059;-65
2023/02/02 04:11:17;;;;;;;2.38;0.20;;;;;;;1.19;83.00;100775.41;5054437;28;20029;-65
2023/02/02 04:13:44;;;;;;;1.75;0.40;;;;;;;1.29;83.10;100800.13;5055483;28;20029;-65
2023/02/02 04:16:10;;;;;;;2.05;0.25;;;;;;;1.35;82.53;100802.19;5056007;28;20044;-65
2023/02/02 04:18:39;;;;;;;0.90;0.20;;;;;;;1.41;81.69;100806.94;5056368;28;20116;-65
2023/02/02 04:21:06;;;;;;;0.88;0.20;;;;;;;1.47;81.68;100813.53;5054361;28;20191;-65
2023/02/02 04:23:32;;;;;;;0.75;0.20;;;;;;;1.46;81.39;100809.22;5055073;28;20029;-65
2023/02/02 04:25:59;;;;;;;0.43;0.20;;;;;;;1.33;81.10;100790.91;5055345;28;20113;-65
2023/02/02 04:28:25;;;;;;;1.42;0.40;;;;;;;1.49;81.26;100822.19;5054318;28;20059;-65
2023/02/02 04:30:53;;;;;;;1.90;0.40;;;;;;;1.40;81.17;100823.84;5055162;28;20075;-65
2023/02/02 04:33:20;;;;;;;0.98;0.20;;;;;;;1.30;81.73;100825.66;5054493;28;20087;-65
2023/02/02 04:35:45;;;;;;;1.48;0.30;;;;;;;0.93;82.79;100806.94;5056202;28;20055;-65
2023/02/02 04:38:11;;;;;;;2.05;0.32;;;;;;;1.37;81.72;100847.16;5054746;28;20049;-65
2023/02/02 04:40:41;;;;;;;0.35;0.20;;;;;;;1.37;81.48;100820.63;5054529;28;20056;-65
2023/02/02 04:43:07;;;;;;;1.20;0.30;;;;;;;1.43;81.24;100848.41;5055799;28;20041;-65
2023/02/02 04:45:33;;;;;;;1.60;0.30;;;;;;;1.49;80.81;100863.75;5055644;28;20083;-65
2023/02/02 04:47:58;;;;;;;1.73;0.43;;;;;;;1.39;81.81;100867.25;5055707;28;20075;-65
2023/02/02 04:50:24;;;;;;;1.88;0.32;;;;;;;1.39;81.85;100854.00;5055931;28;20072;-65
2023/02/02 04:52:49;;;;;;;2.63;0.45;;;;;;;1.39;81.34;100864.59;5055660;28;20496;-65
2023/02/02 04:55:14;;;;;;;1.00;0.40;;;;;;;1.45;80.66;100849.09;5056248;28;20040;-65
2023/02/02 04:57:40;;;;;;;0.90;0.40;;;;;;;1.63;80.36;100888.06;5054485;28;20450;-65
2023/02/02 05:00:07;;;;;;;1.50;0.40;;;;;;;1.47;80.75;100892.25;5055447;28;20040;-65
2023/02/02 05:02:39;;;;;;;0.77;0.20;;;;;;;1.41;80.88;100886.50;5057509;28;20029;-65
2023/02/02 05:05:06;;;;;;;0.77;0.30;;;;;;;1.37;81.61;100893.06;5053844;28;20090;-64
2023/02/02 05:07:31;;;;;;;2.75;0.40;;;;;;;1.29;81.65;100900.88;5051990;28;20040;-64
2023/02/02 05:09:57;;;;;;;1.02;0.30;;;;;;;1.08;82.71;100893.00;5054899;28;20780;-64
2023/02/02 05:12:22;;;;;;;0.57;0.20;;;;;;;1.14;83.30;100912.81;5054765;28;20131;-65
2023/02/02 05:14:48;;;;;;;0.82;0.40;;;;;;;0.98;83.12;100917.78;5055628;28;20025;-65
2023/02/02 05:17:13;;;;;;;0.55;0.30;;;;;;;1.21;82.31;100906.00;5056565;28;20033;-64
2023/02/02 05:19:40;;;;;;;1.40;0.50;;;;;;;1.13;82.62;100908.50;5058400;28;20043;-65
2023/02/02 05:22:05;;;;;;;2.67;0.43;;;;;;;0.96;82.17;100891.44;5058156;28;20132;-65
2023/02/02 05:24:31;;;;;;;0.85;0.22;;;;;;;1.03;82.84;100923.53;5057453;28;20496;-65
2023/02/02 05:26:59;;;;;;;0.93;0.40;;;;;;;1.01;82.77;100925.47;5055666;28;20463;-65
2023/02/02 05:29:29;;;;;;;1.05;0.30;;;;;;;0.73;83.78;100934.97;5037068;28;20036;-64
2023/02/02 05:31:55;;;;;;;1.38;0.57;;;;;;;0.74;83.91;100939.31;5053278;28;20117;-66
2023/02/02 05:34:21;;;;;;;1.85;0.40;;;;;;;0.65;84.71;100946.22;5054094;28;20243;-65
2023/02/02 05:36:47;;;;;;;0.45;0.30;;;;;;;0.68;84.23;100948.59;5053371;28;20055;-65
2023/02/02 05:39:12;;;;;;;0.98;0.30;;;;;;;0.67;84.50;100960.19;5036437;28;20049;-66
2023/02/02 05:41:38;;;;;;;0.40;0.20;;;;;;;0.66;83.73;100946.09;5052858;28;20506;-66
2023/02/02 05:44:03;;;;;;;1.30;0.30;;;;;;;0.78;83.81;100972.50;5054407;28;20033;-66
2023/02/02 05:46:29;;;;;;;1.80;0.40;;;;;;;0.50;84.19;100950.16;5053500;28;20165;-66
2023/02/02 05:48:55;;;;;;;1.38;0.20;;;;;;;0.63;84.31;100985.22;5052728;28;20024;-66
2023/02/02 05:51:26;;;;;;;1.40;0.30;;;;;;;0.61;83.98;100984.53;5054314;28;20021;-66
2023/02/02 05:53:51;;;;;;;1.05;0.30;;;;;;;0.54;83.79;100983.38;5052561;28;20533;-65
2023/02/02 05:56:17;;;;;;;1.92;0.28;;;;;;;0.57;83.53;100991.06;5036506;28;20123;-66
2023/02/02 05:58:43;;;;;;;0.80;0.40;;;;;;;0.63;82.85;101001.09;5054130;28;20021;-66
2023/02/02 06:01:09;;;;;;;1.85;0.63;;;;;;;0.70;82.86;101010.25;5036507;28;20033;-65
2023/02/02 06:03:34;;;;;;;1.38;0.40;;;;;;;0.82;81.80;100990.63;5054388;28;20112;-65
2023/02/02 06:06:00;;;;;;;0.88;0.30;;;;;;;0.90;81.94;101019.97;5036307;28;20037;-65
2023/02/02 06:08:26;;;;;;;1.58;0.20;;;;;;;0.73;83.02;101017.06;5051083;28;20029;-65
2023/02/02 06:10:51;;;;;;;1.10;0.30;;;;;;;0.46;84.08;100992.81;5050666;28;20043;-66
2023/02/02 06:13:16;;;;;;;2.30;0.30;;;;;;;0.61;83.94;101029.56;5052162;28;20431;-66
2023/02/02 06:15:42;;;;;;;1.67;0.30;;;;;;;0.62;84.06;101018.81;5050725;28;20032;-66
2023/02/02 06:18:08;;;;;;;2.10;0.50;;;;;;;0.60;84.11;101038.47;5051137;28;20095;-65
2023/02/02 06:20:35;;;;;;;1.02;0.30;;;;;;;0.34;84.89;101038.81;5051676;28;20051;-65
2023/02/02 06:23:00;;;;;;;1.35;0.30;;;;;;;0.47;84.33;101043.94;5052587;28;20026;-65
2023/02/02 06:25:26;;;;;;;3.78;0.40;;;;;;;0.59;84.02;101044.72;5054063;28;20024;-65
2023/02/02 06:27:56;;;;;;;1.02;0.30;;;;;;;0.61;84.05;101051.56;5052412;28;20025;-65
2023/02/02 06:30:22;;;;;;;1.23;0.30;;;;;;;0.64;83.92;101047.81;5052519;28;20095;-65
2023/02/02 06:32:47;;;;;;;1.23;0.50;;;;;;;0.51;83.89;101049.81;5051581;28;20073;-65
2023/02/02 06:35:12;;;;;;;2.05;0.30;;;;;;;0.54;83.89;101050.41;5034503;28;20029;-65
2023/02/02 06:37:38;;;;;;;0.63;0.47;;;;;;;0.55;83.95;101052.06;5052330;28;20365;-65
2023/02/02 06:40:06;;;;;;;2.40;0.40;;;;;;;0.54;83.72;101062.81;5053595;28;20054;-65
2023/02/02 06:42:31;;;;;;;1.48;0.43;;;;;;;0.41;83.66;101058.53;5036391;28;20518;-65
2023/02/02 06:44:56;;;;;;;1.17;0.35;;;;;;;0.54;83.03;101076.03;5051312;28;20021;-65
2023/02/02 06:47:22;;;;;;;1.92;0.40;;;;;;;0.46;82.82;101055.47;5053183;28;20056;-66
2023/02/02 06:49:47;;;;;;;1.77;0.40;;;;;;;0.40;82.61;101063.97;5051613;28;20032;-66
2023/02/02 06:52:12;;;;;;;2.53;0.60;;;;;;;0.55;82.43;101078.56;5051900;28;20021;-65
2023/02/02 06:54:38;;;;;;;1.05;0.28;;;;;;;0.63;82.25;101092.00;5053748;28;20080;-65
2023/02/02 06:57:03;;;;;;;1.85;0.30;;;;;;;0.51;82.63;101102.78;5054046;28;20040;-65
2023/02/02 06:59:29;;;;;;;2.88;0.40;;;;;;;0.59;82.25;101110.91;5054942;28;20025;-65
2023/02/02 07:01:54;;;;;;;1.70;0.40;;;;;;;0.69;81.88;101106.53;5052736;28;20353;-65
2023/02/02 07:04:20;;;;;;;1.60;0.43;;;;;;;0.46;82.62;101100.50;5051175;28;20501;-65
2023/02/02 07:06:46;;;;;;;1.75;0.30;;;;;;;0.50;82.25;101088.69;5051101;28;20029;-65
2023/02/02 07:09:11;;;;;;;0.70;0.30;;;;;;;0.65;81.87;101121.00;5053169;28;20544;-65
2023/02/02 07:11:37;;;;;;;1.20;0.38;;;;;;;0.60;81.57;101129.34;5052592;28;20039;-65
2023/02/02 07:14:03;;;;;;;1.08;0.30;;;;;;;0.55;81.82;101107.69;5053125;28;20035;-65
2023/02/02 07:16:29;;;;;;;0.85;0.30;;;;;;;0.51;81.93;101126.59;5052498;28;20029;-65
2023/02/02 07:18:55;;;;;;;2.28;0.40;;;;;;;0.47;82.17;101123.38;5052609;28;20029;-65
2023/02/02 07:21:24;;;;;;;2.83;0.30;;;;;;;0.42;82.24;101139.63;5051023;28;20364;-65
2023/02/02 07:23:50;;;;;;;1.65;0.30;;;;;;;0.46;82.12;101141.06;5051280;28;20013;-65
2023/02/02 07:26:17;;;;;;;1.25;0.30;;;;;;;0.55;81.62;101152.69;5051813;28;20021;-65
2023/02/02 07:28:44;;;;;;;2.15;0.50;;;;;;;0.39;82.52;101152.25;5052359;28;20024;-65
2023/02/02 07:31:14;;;;;;;0.70;0.17;;;;;;;0.30;82.49;101158.28;5050205;28;20122;-65
2023/02/02 07:33:43;;;;;;;1.90;0.40;;;;;;;0.09;82.65;101161.69;5052003;28;20159;-65
2023/02/02 07:36:10;;;;;;;1.35;0.40;;;;;;;0.21;82.31;101170.47;5050680;28;20115;-65
2023/02/02 07:38:36;;;;;;;0.47;0.15;;;;;;;0.18;82.20;101170.72;5050215;28;20024;-65
2023/02/02 07:41:03;;;;;;;0.73;0.30;;;;;;;0.15;81.84;101174.44;5052317;28;20336;-65
2023/02/02 07:43:28;;;;;;;1.20;0.35;;;;;;;0.21;81.75;101191.66;5052139;28;20479;-65
2023/02/02 07:46:00;;;;;;;1.00;0.30;;;;;;;0.41;81.11;101193.53;5050484;28;20040;-65
2023/02/02 07:48:26;;;;;;;0.82;0.30;;;;;;;0.59;80.10;101191.19;5050864;28;20028;-65
2023/02/02 07:50:51;;;;;;;1.38;0.30;;;;;;;0.57;79.96;101195.78;5051823;28;20029;-65
2023/02/02 07:53:17;;;;;;;0.70;0.30;;;;;;;0.61;79.25;101191.06;5050498;28;20044;-65
2023/02/02 07:55:42;;;;;;;0.82;0.30;;;;;;;0.66;79.22;101202.13;5049670;28;20067;-65
2023/02/02 07:58:09;;;;;;;0.75;0.25;;;;;;;0.78;78.62;101206.44;5052015;28;20052;-65
2023/02/02 08:00:34;;;;;;;2.50;0.40;;;;;;;0.57;79.08;101218.78;5033496;28;20033;-65
2023/02/02 08:02:59;;;;;;;1.70;0.50;;;;;;;0.69;79.03;101228.34;5033831;28;20452;-65
2023/02/02 08:05:27;;;;;;;0.35;0.28;;;;;;;0.53;79.59;101234.06;5050369;28;20025;-65
2023/02/02 08:07:52;;;;;;;1.25;0.52;;;;;;;0.57;79.82;101237.31;5051797;28;20052;-65
2023/02/02 08:10:17;;;;;;;1.75;0.30;;;;;;;0.47;80.28;101250.44;5051918;28;20035;-65
2023/02/02 08:12:43;;;;;;;1.10;0.40;;;;;;;0.35;80.97;101241.66;5050265;28;20029;-65
2023/02/02 08:15:09;;;;;;;1.45;0.40;;;;;;;0.21;80.43;101234.00;5051980;28;20212;-65
2023/02/02 08:17:36;;;;;;;0.77;0.25;;;;;;;0.38;80.54;101253.81;5050361;28;20029;-65
2023/02/02 08:20:01;;;;;;;1.10;0.40;;;;;;;0.54;79.95;101258.75;5051790;28;20508;-65
2023/02/02 08:22:27;;;;;;;0.57;0.30;;;;;;;0.60;79.62;101255.63;5054353;28;20082;-65
2023/02/02 08:24:52;;;;;;;0.50;0.20;;;;;;;0.62;79.38;101264.25;5033487;28;20115;-65
2023/02/02 08:27:17;;;;;;;2.25;0.47;;;;;;;0.60;79.10;101255.63;5051155;28;20102;-65
2023/02/02 08:29:45;;;;;;;1.40;0.40;;;;;;;0.49;79.10;101260.91;5033463;28;20044;-65
2023/02/02 08:32:10;;;;;;;0.43;0.30;;;;;;;0.47;79.15;101258.41;5051899;28;20031;-65
2023/02/02 08:34:36;;;;;;;0.82;0.40;;;;;;;0.40;79.35;101259.84;5051686;28;20086;-65
2023/02/02 08:37:02;;;;;;;1.65;0.47;;;;;;;0.57;79.32;101262.00;5051137;28;20044;-65
2023/02/02 08:39:28;;;;;;;1.95;0.32;;;;;;;0.70;78.83;101261.84;5052623;28;20040;-65
2023/02/02 08:41:55;;;;;;;0.63;0.30;;;;;;;0.74;78.65;101257.97;5054808;28;20423;-65
2023/02/02 08:44:20;;;;;;;2.67;0.35;;;;;;;0.78;78.77;101274.47;5055531;28;20029;-65
2023/02/02 08:46:46;;;;;;;2.40;0.47;;;;;;;0.64;78.53;101275.56;5055722;28;20387;-65
2023/02/02 08:49:12;;;;;;;0.52;0.38;;;;;;;0.82;77.76;101274.06;5055223;28;20033;-65
2023/02/02 08:51:37;;;;;;;0.93;0.40;;;;;;;0.97;77.43;101289.72;5053806;28;20029;-65
2023/02/02 08:54:03;;;;;;;4.72;0.73;;;;;;;0.70;77.26;101261.84;5054441;28;20021;-65
2023/02/02 08:56:29;;;;;;;1.23;0.30;;;;;;;1.00;76.63;101294.75;5055143;28;20459;-65
2023/02/02 08:58:59;;;;;;;0.30;0.20;;;;;;;1.09;76.33;101310.75;5055446;28;20037;-65
2023/02/02 09:01:27;;;;;;;1.13;0.40;;;;;;;0.99;75.75;101314.25;5054899;28;20492;-65
2023/02/02 09:04:05;;;;;;;2.15;0.10;;;;;;;0.91;74.83;101301.66;5055004;28;20029;-65
2023/02/02 09:06:35;;;;;;;0.35;0.20;;;;;;;0.83;74.35;101298.75;5054909;28;20021;-65
2023/02/02 09:09:03;;;;;;;1.35;0.32;;;;;;;1.06;74.46;101329.56;5055077;28;20471;-65
2023/02/02 09:11:28;;;;;;;0.70;0.40;;;;;;;1.15;74.80;101335.91;5053758;28;20049;-65
2023/02/02 09:13:57;;;;;;;1.38;0.30;;;;;;;1.22;74.93;101336.25;5054736;28;20458;-65
2023/02/02 09:16:24;;;;;;;1.75;0.40;;;;;;;1.25;75.21;101328.03;5053574;28;20025;-65
2023/02/02 09:18:49;;;;;;;1.02;0.30;;;;;;;1.37;74.66;101357.03;5054258;28;20021;-65
2023/02/02 09:21:16;;;;;;;1.80;0.30;;;;;;;1.39;74.76;101354.25;5054871;28;20052;-65
2023/02/02 09:23:43;;;;;;;1.08;0.45;;;;;;;1.35;74.24;101374.88;5054352;28;20032;-65
2023/02/02 09:26:14;;;;;;;2.42;0.30;;;;;;;1.39;74.17;101379.00;5054742;28;20480;-65
2023/02/02 09:28:41;;;;;;;0.70;0.30;;;;;;;1.53;74.69;101390.28;5054409;28;20033;-65
2023/02/02 09:31:07;;;;;;;1.35;0.50;;;;;;;1.54;74.54;101405.22;5036608;28;20031;-65
2023/02/02 09:33:33;;;;;;;0.95;0.30;;;;;;;1.56;74.51;101392.69;5055623;28;20036;-65
2023/02/02 09:36:13;;;;;;;0.60;0.30;;;;;;;1.62;74.21;101393.00;5054458;28;20033;-65
2023/02/02 09:38:39;;;;;;;0.80;0.32;;;;;;;1.41;73.50;101405.38;5054069;28;20074;-65
2023/02/02 09:41:37;;;;;;;0.75;0.30;;;;;;;1.42;74.49;101396.44;5054321;28;20043;-65
2023/02/02 09:44:40;;;;;;;2.95;0.40;;;;;;;1.59;73.31;101398.56;5053147;28;20410;-65
2023/02/02 09:47:31;;;;;;;1.40;0.32;;;;;;;1.59;71.84;101398.56;5053341;28;20434;-65
2023/02/02 09:50:28;;;;;;;1.40;0.30;;;;;;;1.61;72.77;101417.00;5054558;28;20063;-65
2023/02/02 09:53:15;;;;;;;2.05;0.52;;;;;;;1.62;73.00;101421.31;5053000;28;20028;-65
2023/02/02 09:55:43;;;;;;;0.77;0.32;;;;;;;1.71;72.73;101419.72;5056313;28;20380;-65
2023/02/02 09:58:21;;;;;;;1.73;0.38;;;;;;;1.77;72.69;101436.00;5054278;28;20162;-65
2023/02/02 10:00:49;;;;;;;2.47;0.40;;;;;;;1.61;73.01;101430.25;5052777;28;20028;-65
2023/02/02 10:03:22;;;;;;;1.70;0.40;;;;;;;1.44;72.87;101393.66;5052237;28;20028;-65
2023/02/02 10:05:56;;;;;;;0.50;0.30;;;;;;;1.79;73.07;101428.75;5053481;28;20134;-65
2023/02/02 10:08:35;;;;;;;2.00;0.40;;;;;;;1.60;73.50;101431.25;5052513;28;20514;-65
2023/02/02 10:11:14;;;;;;;1.48;0.45;;;;;;;1.71;72.89;101449.75;5052378;28;20266;-65
2023/02/02 10:13:42;;;;;;;1.58;0.40;;;;;;;1.50;73.53;101411.75;5053198;28;20098;-65
2023/02/02 10:16:16;;;;;;;1.13;0.43;;;;;;;1.58;73.74;101441.94;5053491;28;20025;-65
2023/02/02 10:18:50;;;;;;;0.85;0.30;;;;;;;1.60;73.64;101441.84;5053431;28;20102;-66
2023/02/02 10:21:28;;;;;;;1.02;0.40;;;;;;;1.78;73.32;101447.44;5053517;28;20045;-65
2023/02/02 10:23:53;;;;;;;0.68;0.32;;;;;;;1.86;72.96;101447.66;5052962;28;20029;-65
2023/02/02 10:26:20;;;;;;;1.17;0.50;;;;;;;2.00;72.82;101441.22;5050984;28;20040;-65
2023/02/02 10:29:09;;;;;;;0.50;0.38;;;;;;;1.94;73.27;101449.69;5053349;28;20036;-65
2023/02/02 10:31:56;;;;;;;0.70;0.30;;;;;;;2.04;72.95;101455.91;5052983;28;20059;-65
2023/02/02 10:34:41;;;;;;;1.63;0.50;;;;;;;2.09;72.98;101456.38;5053672;28;20112;-65
2023/02/02 10:37:15;;;;;;;0.90;0.57;;;;;;;1.97;73.11;101452.91;5053960;28;20555;-65
2023/02/02 10:40:00;;;;;;;1.85;0.43;;;;;;;2.09;72.56;101459.88;5053891;28;20047;-65
2023/02/02 10:43:44;;;;;;;2.03;0.40;;;;;;;2.20;72.40;101472.25;5052185;28;20035;-65
2023/02/02 10:45:39;;;;;;;0.77;0.45;;;;;;;2.03;72.79;101456.88;5052946;28;20033;-65
2023/02/02 10:48:14;;;;;;;0.73;0.30;;;;;;;2.16;73.04;101489.41;5052324;28;20339;-65
2023/02/02 10:50:42;;;;;;;;;;;;;;;2.19;72.74;101490.97;5052891;28;20116;-65
2023/02/02 10:53:13;;;;;;;1.10;0.50;;;;;;;2.11;72.97;101500.38;5052831;28;20375;-65
2023/02/02 10:55:45;;;;;;;2.20;0.60;;;;;;;2.15;73.12;101500.13;5052720;28;20025;-65
2023/02/02 10:58:10;;;;;;;2.53;0.68;;;;;;;2.26;72.39;101494.78;5052914;28;20387;-66
2023/02/02 11:00:50;;;;;;;1.35;0.60;;;;;;;2.40;72.34;101501.59;5052548;28;20078;-65
2023/02/02 11:03:18;;;;;;;1.30;0.80;;;;;;;2.45;72.11;101491.41;5051323;28;20025;-65
2023/02/02 11:08:31;;;;;;;1.87;0.60;;;;;;;2.59;71.41;101499.91;5053219;28;20127;-65
2023/02/02 11:11:08;;;;;;;1.25;0.57;;;;;;;2.63;71.34;101504.97;5052568;28;20266;-65
2023/02/02 11:13:40;;;;;;;0.47;0.30;;;;;;;2.64;71.10;101509.31;5052366;28;20071;-65
2023/02/02 11:16:15;;;;;;;0.75;0.43;;;;;;;2.67;70.78;101506.38;5052485;28;20029;-65
2023/02/02 11:18:42;;;;;;;2.63;0.50;;;;;;;2.68;71.10;101508.06;5052144;28;20071;-65
2023/02/02 11:21:21;;;;;;;1.23;0.40;;;;;;;2.61;71.29;101496.28;5053438;28;20177;-65
2023/02/02 11:24:02;;;;;;;1.45;0.50;;;;;;;2.58;71.04;101473.47;5052371;28;20025;-65
2023/02/02 11:26:48;;;;;;;1.98;0.40;;;;;;;2.89;70.65;101490.28;5053246;28;20044;-65
2023/02/02 11:29:19;;;;;;;2.08;0.40;;;;;;;2.96;71.17;101491.44;5054326;28;20187;-65
2023/02/02 11:31:45;;;;;;;2.22;0.60;;;;;;;2.91;71.08;101476.84;5050740;28;20028;-65
2023/02/02 11:34:27;;;;;;;1.90;0.57;;;;;;;2.93;71.10;101480.22;5051947;28;20036;-65
2023/02/02 11:37:09;;;;;;;2.13;0.50;;;;;;;2.98;71.02;101484.19;5051143;28;20035;-65
2023/02/02 11:39:35;;;;;;;1.20;0.50;;;;;;;3.01;70.63;101483.94;5052361;28;20025;-65
2023/02/02 11:42:06;;;;;;;1.58;0.50;;;;;;;2.99;71.22;101482.38;5052069;28;20029;-65
2023/02/02 11:44:33;;;;;;;0.55;0.25;;;;;;;3.02;71.15;101500.72;5053322;28;20131;-65
2023/02/02 11:46:59;;;;;;;1.27;0.35;;;;;;;2.95;70.87;101484.44;5053004;28;20119;-66
2023/02/02 11:49:26;;;;;;;1.15;0.40;;;;;;;3.04;70.53;101507.56;5051472;28;20037;-65
2023/02/02 11:52:03;;;;;;;0.55;0.35;;;;;;;3.04;70.57;101512.03;5050731;28;20602;-66
2023/02/02 11:54:32;;;;;;;2.13;0.57;;;;;;;2.99;70.52;101515.09;5052613;28;20029;-66